Time;durP1;ratioP1;P1;durP2;ratioP2;P2;SDS_P1;SDS_P2;PMS_P1;PMS_P2;Temp;Humidity;BMP_temperature;BMP_pressure;BME280_temperature;BME280_humidity;BME280_pressure;Samples;Min_cycle;Max_cycle;Signal;HPM_P1;HPM_P2
2021/10/30 00:00:55;;;;;;;8.23;4.95;;;13.10;99.90;;;14.31;73.27;99696.16;6050640;23;20011;-81
2021/10/30 00:03:23;;;;;;;8.70;4.97;;;13.10;99.90;;;14.31;73.22;99689.75;6074341;23;20014;-80
2021/10/30 00:05:51;;;;;;;7.72;4.90;;;13.10;99.90;;;14.31;73.16;99692.56;6100038;23;20006;-80
2021/10/30 00:08:19;;;;;;;6.45;4.40;;;13.10;99.90;;;14.27;73.13;99687.75;6098470;23;20046;-80
2021/10/30 00:10:45;;;;;;;8.88;5.30;;;13.10;99.90;;;14.28;73.08;99685.75;6099575;23;20006;-80
2021/10/30 00:13:11;;;;;;;7.57;4.90;;;13.20;99.90;;;14.29;73.09;99681.72;6073428;23;20444;-81
2021/10/30 00:15:40;;;;;;;6.93;4.85;;;13.10;99.90;;;14.30;72.93;99686.13;6101447;23;20010;-81
2021/10/30 00:18:06;;;;;;;7.68;4.45;;;13.10;99.90;;;14.31;72.62;99689.75;6052116;23;20014;-80
2021/10/30 00:20:33;;;;;;;8.70;5.22;;;13.20;99.90;;;14.33;72.62;99687.31;6101663;23;20499;-81
2021/10/30 00:23:00;;;;;;;10.05;5.00;;;13.10;99.90;;;14.35;72.89;99682.97;6101499;23;20289;-81
2021/10/30 00:25:25;;;;;;;12.27;5.20;;;13.10;99.90;;;14.30;72.86;99671.28;6075025;23;20016;-82
2021/10/30 00:27:51;;;;;;;7.22;5.13;;;13.10;99.90;;;14.23;72.77;99681.34;6075113;23;20006;-81
2021/10/30 00:30:17;;;;;;;9.40;5.30;;;13.10;99.90;;;14.22;72.75;99674.09;6102166;23;20014;-82
2021/10/30 00:32:43;;;;;;;8.60;4.88;;;13.10;99.90;;;14.24;72.64;99687.75;6076830;23;20324;-81
2021/10/30 00:35:09;;;;;;;6.97;4.70;;;13.10;99.90;;;14.23;72.83;99684.16;6075779;23;20455;-82
2021/10/30 00:37:35;;;;;;;11.18;4.88;;;13.10;99.90;;;14.28;72.50;99691.38;6101425;23;20054;-83
2021/10/30 00:40:03;;;;;;;9.23;4.65;;;13.10;99.90;;;14.25;72.34;99689.38;6102443;23;20383;-83
2021/10/30 00:42:29;;;;;;;9.98;5.40;;;13.10;99.90;;;14.24;72.75;99691.38;6077766;23;20010;-81
2021/10/30 00:44:55;;;;;;;9.10;4.78;;;13.10;99.90;;;14.26;72.91;99679.72;6082601;23;20017;-79
2021/10/30 00:47:21;;;;;;;8.55;4.72;;;13.10;99.90;;;14.17;72.86;99674.53;6115890;23;20011;-81
2021/10/30 00:49:46;;;;;;;7.93;4.53;;;13.10;99.90;;;14.26;72.14;99668.50;6114531;23;20003;-81
2021/10/30 00:52:15;;;;;;;8.23;4.85;;;13.10;99.90;;;14.32;71.97;99674.50;6113785;23;20010;-80
2021/10/30 00:54:44;;;;;;;8.43;5.45;;;13.10;99.90;;;14.39;71.86;99654.81;6080192;23;20436;-81
2021/10/30 00:57:11;;;;;;;7.20;4.88;;;13.10;99.90;;;14.38;71.60;99648.44;6074605;23;20250;-81
2021/10/30 00:59:38;;;;;;;12.40;6.10;;;13.20;99.90;;;14.40;71.34;99643.19;6099237;23;20010;-80
2021/10/30 01:02:05;;;;;;;8.07;5.03;;;13.20;99.90;;;14.35;71.53;99640.00;6099408;23;20007;-79
2021/10/30 01:04:31;;;;;;;10.95;5.60;;;13.10;99.90;;;14.34;71.28;99641.22;6073424;23;20109;-80
2021/10/30 01:07:00;;;;;;;10.68;4.63;;;13.00;99.90;;;14.24;71.55;99660.47;6099520;23;20467;-79
2021/10/30 01:09:26;;;;;;;9.45;4.25;;;13.00;99.90;;;14.22;71.68;99648.84;6050312;23;20010;-79
2021/10/30 01:11:53;;;;;;;5.75;4.00;;;13.00;99.90;;;14.22;71.64;99653.69;6097822;23;20010;-81
2021/10/30 01:14:21;;;;;;;6.47;4.20;;;13.00;99.90;;;14.29;71.36;99639.59;6050112;23;20011;-80
2021/10/30 01:17:04;;;;;;;6.82;4.35;;;13.00;99.90;;;14.29;71.18;99619.94;6074928;23;20011;-80
2021/10/30 01:19:31;;;;;;;7.82;4.60;;;13.10;99.90;;;14.30;71.37;99629.16;6077630;23;20010;-80
2021/10/30 01:22:03;;;;;;;9.82;4.25;;;13.10;99.90;;;14.28;71.40;99618.34;6074224;23;20018;-80
2021/10/30 01:24:29;;;;;;;6.88;4.00;;;13.20;99.90;;;14.24;71.10;99625.97;6074088;23;20013;-80
2021/10/30 01:26:55;;;;;;;5.50;3.90;;;13.20;99.90;;;14.25;71.35;99619.94;6072912;23;20037;-81
2021/10/30 01:29:22;;;;;;;6.78;4.15;;;13.20;99.90;;;14.22;71.46;99609.53;6099758;23;20009;-83
2021/10/30 01:31:49;;;;;;;8.00;4.60;;;13.10;99.90;;;14.13;71.50;99606.34;6074751;23;20010;-79
2021/10/30 01:34:16;;;;;;;7.18;4.32;;;13.00;99.90;;;14.08;71.91;99611.59;6074412;23;20021;-82
2021/10/30 01:36:42;;;;;;;8.20;4.40;;;13.00;99.90;;;13.98;72.52;99618.84;6104040;23;20422;-82
2021/10/30 01:39:10;;;;;;;7.20;5.00;;;12.90;99.90;;;14.02;72.32;99618.84;6102669;23;20496;-80
2021/10/30 01:41:38;;;;;;;7.75;4.75;;;12.90;99.90;;;14.07;72.23;99612.78;6051939;23;20317;-81
2021/10/30 01:44:06;;;;;;;7.07;4.38;;;13.00;99.90;;;14.19;71.94;99609.56;6074551;23;20058;-83
2021/10/30 01:46:33;;;;;;;8.55;5.20;;;13.00;99.90;;;14.33;71.47;99608.69;6100655;23;20006;-82
2021/10/30 01:49:01;;;;;;;7.93;4.93;;;13.10;99.90;;;14.35;71.22;99623.16;6074813;23;20007;-81
2021/10/30 01:51:27;;;;;;;7.60;5.22;;;13.10;99.90;;;14.39;70.86;99615.50;6074166;23;20006;-81
2021/10/30 01:53:53;;;;;;;7.43;4.93;;;13.20;99.90;;;14.39;70.83;99607.06;6074223;23;20003;-82
2021/10/30 01:56:20;;;;;;;8.60;4.13;;;13.20;99.90;;;14.44;70.64;99599.03;6099989;23;20009;-82
2021/10/30 01:58:46;;;;;;;9.63;4.65;;;13.20;99.90;;;14.43;70.73;99585.38;6073388;23;20460;-81
2021/10/30 02:01:12;;;;;;;10.25;4.88;;;13.20;99.90;;;14.38;70.59;99585.81;6099292;23;20013;-80
2021/10/30 02:03:38;;;;;;;6.63;4.35;;;13.10;99.90;;;14.24;71.11;99589.47;6073276;23;20053;-81
2021/10/30 02:06:06;;;;;;;7.10;4.30;;;13.10;99.90;;;14.22;71.36;99584.25;6073727;23;20441;-82
2021/10/30 02:08:33;;;;;;;7.20;4.25;;;13.10;99.90;;;14.21;71.41;99588.28;6097303;23;20015;-83
2021/10/30 02:11:01;;;;;;;6.28;4.30;;;13.10;99.90;;;14.20;71.71;99580.25;6073753;23;20006;-81
2021/10/30 02:13:28;;;;;;;6.30;3.92;;;13.10;99.90;;;14.21;71.50;99568.63;6050935;23;20025;-80
2021/10/30 02:15:54;;;;;;;7.10;4.38;;;13.10;99.90;;;14.22;71.51;99566.63;6099941;23;20007;-81
2021/10/30 02:18:21;;;;;;;5.75;3.47;;;13.10;99.90;;;14.21;71.72;99557.41;6098475;23;20459;-81
2021/10/30 02:20:48;;;;;;;11.48;4.10;;;13.20;99.90;;;14.21;71.32;99546.16;6101275;23;20085;-81
2021/10/30 02:23:15;;;;;;;5.97;4.25;;;13.20;99.90;;;14.18;70.96;99544.16;6076466;23;20014;-83
2021/10/30 02:25:41;;;;;;;10.52;4.15;;;13.20;99.90;;;14.17;71.34;99539.75;6087537;23;20010;-80
2021/10/30 02:28:07;;;;;;;5.03;3.35;;;13.20;99.90;;;14.16;71.25;99542.97;6096779;23;20073;-79
2021/10/30 02:30:33;;;;;;;7.07;4.07;;;13.20;99.90;;;14.21;70.85;99529.31;6112720;23;20022;-82
2021/10/30 02:33:00;;;;;;;4.93;3.25;;;13.20;99.90;;;14.11;71.27;99523.75;6085517;23;20029;-80
2021/10/30 02:35:27;;;;;;;5.57;3.58;;;13.20;99.90;;;14.17;71.00;99520.09;6077964;23;20019;-79
2021/10/30 02:37:53;;;;;;;6.18;3.55;;;13.20;99.90;;;14.19;71.00;99514.88;6068994;23;20006;-79
2021/10/30 02:40:19;;;;;;;7.13;3.80;;;13.30;99.90;;;14.23;70.42;99517.66;6069643;23;20389;-79
2021/10/30 02:42:44;;;;;;;7.40;4.13;;;13.20;99.90;;;14.23;70.88;99514.84;6069988;23;20043;-81
2021/10/30 02:45:10;;;;;;;5.40;3.30;;;13.20;99.90;;;14.27;70.52;99518.44;6069744;23;20011;-80
2021/10/30 02:47:36;;;;;;;6.10;3.67;;;13.10;99.90;;;14.22;70.63;99528.09;6045276;23;20090;-78
2021/10/30 02:50:04;;;;;;;8.02;3.38;;;13.20;99.90;;;14.30;70.17;99523.22;6069956;23;20045;-78
2021/10/30 02:52:29;;;;;;;7.93;3.85;;;13.10;99.90;;;14.22;70.52;99519.66;6045373;23;20018;-80
2021/10/30 02:54:55;;;;;;;6.13;3.58;;;13.20;99.90;;;14.21;70.54;99520.09;6068484;23;20003;-80
2021/10/30 02:57:22;;;;;;;8.38;3.55;;;13.20;99.90;;;14.20;70.55;99524.91;6044775;23;20150;-80
2021/10/30 02:59:49;;;;;;;6.80;3.28;;;13.20;99.90;;;14.30;69.94;99512.00;6068589;23;20524;-79
2021/10/30 03:02:15;;;;;;;5.00;2.88;;;13.20;99.90;;;14.32;70.15;99506.00;6070375;23;20348;-78
2021/10/30 03:04:40;;;;;;;9.55;3.38;;;13.20;99.90;;;14.10;70.51;99494.06;6070322;23;20007;-81
2021/10/30 03:07:06;;;;;;;7.70;3.30;;;13.20;99.90;;;14.24;70.56;99486.38;6069814;23;20018;-79
2021/10/30 03:09:32;;;;;;;5.93;2.95;;;13.20;99.90;;;14.15;70.56;99491.63;6070366;23;20006;-82
2021/10/30 03:11:58;;;;;;;6.93;3.45;;;13.30;99.90;;;14.27;70.38;99482.72;6044448;23;20007;-80
2021/10/30 03:14:24;;;;;;;6.63;3.15;;;13.30;99.90;;;14.32;69.97;99472.28;6069583;23;20002;-79
2021/10/30 03:16:50;;;;;;;5.53;2.80;;;13.40;99.90;;;14.34;70.01;99487.53;6070101;23;20010;-81
2021/10/30 03:19:16;;;;;;;4.78;2.63;;;13.40;99.90;;;14.34;70.18;99479.13;6069624;23;20007;-79
2021/10/30 03:21:42;;;;;;;7.45;3.33;;;13.40;99.90;;;14.35;69.89;99471.50;6068668;23;20090;-80
2021/10/30 03:24:08;;;;;;;9.35;3.63;;;13.40;99.90;;;14.36;69.63;99471.06;6068696;23;20026;-80
2021/10/30 03:26:35;;;;;;;4.43;3.10;;;13.40;99.90;;;14.42;69.67;99468.59;6067326;23;20010;-80
2021/10/30 03:29:01;;;;;;;6.32;3.45;;;13.40;99.90;;;14.36;69.86;99470.25;6069492;23;20062;-78
2021/10/30 03:31:26;;;;;;;6.30;3.10;;;13.40;99.90;;;14.35;70.13;99469.47;6044649;23;20095;-80
2021/10/30 03:33:52;;;;;;;5.50;2.83;;;13.40;99.90;;;14.32;70.06;99473.06;6071177;23;20026;-79
2021/10/30 03:36:18;;;;;;;5.50;3.50;;;13.40;99.90;;;14.28;70.58;99469.50;6070992;23;20349;-79
2021/10/30 03:38:44;;;;;;;8.35;3.65;;;13.30;99.90;;;14.34;70.05;99483.94;6070826;23;20017;-79
2021/10/30 03:41:14;;;;;;;5.57;3.25;;;13.30;99.90;;;14.36;70.15;99493.53;6069201;23;20018;-80
2021/10/30 03:43:39;;;;;;;6.78;3.67;;;13.40;99.90;;;14.35;70.27;99489.16;6070909;23;20330;-78
2021/10/30 03:46:05;;;;;;;4.82;3.03;;;13.30;99.90;;;14.37;69.54;99483.09;6045025;23;20062;-80
2021/10/30 03:48:31;;;;;;;6.80;4.03;;;13.40;99.90;;;14.45;69.61;99479.81;6071293;23;20011;-80
2021/10/30 03:50:57;;;;;;;8.43;3.22;;;13.40;99.90;;;14.48;69.51;99475.41;6071779;23;20014;-78
2021/10/30 03:53:23;;;;;;;5.55;3.17;;;13.30;99.90;;;14.43;69.74;99479.44;6072958;23;20081;-77
2021/10/30 03:55:49;;;;;;;4.95;3.60;;;13.40;99.90;;;14.38;69.75;99479.09;6072191;23;20014;-79
2021/10/30 03:58:17;;;;;;;7.00;2.97;;;13.40;99.90;;;14.41;69.45;99469.84;6046869;23;20038;-79
2021/10/30 04:00:44;;;;;;;6.30;3.80;;;13.40;99.90;;;14.42;69.53;99477.03;6046120;23;20458;-79
2021/10/30 04:03:11;;;;;;;4.55;3.10;;;13.40;99.90;;;14.43;69.75;99473.81;6073019;23;20456;-78
2021/10/30 04:05:41;;;;;;;9.35;4.07;;;13.40;99.90;;;14.48;69.07;99481.03;6046586;23;20089;-79
2021/10/30 04:08:08;;;;;;;4.93;3.35;;;13.40;99.90;;;14.48;69.43;99490.22;6047460;23;20414;-78
2021/10/30 04:10:34;;;;;;;4.03;3.33;;;13.40;99.90;;;14.54;69.05;99477.38;6047281;23;20018;-79
2021/10/30 04:13:01;;;;;;;8.30;3.85;;;13.30;99.90;;;14.39;69.70;99478.66;6072168;23;20053;-82
2021/10/30 04:15:27;;;;;;;5.38;3.83;;;13.30;99.90;;;14.39;69.68;99469.44;6070682;23;20016;-81
2021/10/30 04:17:53;;;;;;;5.53;3.72;;;13.30;99.90;;;14.45;69.21;99473.44;6084025;23;19995;-78
2021/10/30 04:20:19;;;;;;;5.13;3.30;;;13.30;99.90;;;14.46;69.03;99464.56;6091030;23;20002;-81
2021/10/30 04:22:46;;;;;;;5.18;3.45;;;13.40;99.90;;;14.50;68.82;99461.75;6094142;23;20023;-79
2021/10/30 04:25:11;;;;;;;8.77;3.30;;;13.40;99.90;;;14.52;68.59;99459.31;6050358;23;20030;-81
2021/10/30 04:27:37;;;;;;;5.18;3.70;;;13.40;99.90;;;14.55;69.05;99461.28;6074777;23;20023;-81
2021/10/30 04:30:05;;;;;;;8.15;3.35;;;13.40;99.90;;;14.46;68.81;99458.16;6073655;23;20003;-80
2021/10/30 04:32:31;;;;;;;5.07;3.08;;;13.30;99.90;;;14.48;68.68;99456.53;6074709;23;20031;-77
2021/10/30 04:35:07;;;;;;;4.55;3.58;;;13.30;99.90;;;14.47;68.71;99456.94;6047680;23;20496;-80
2021/10/30 04:37:38;;;;;;;8.15;3.60;;;13.30;99.90;;;14.43;68.50;99450.56;6073591;23;20018;-80
2021/10/30 04:40:06;;;;;;;4.00;3.10;;;13.40;99.90;;;14.57;68.64;99456.88;6073081;23;20017;-79
2021/10/30 04:42:32;;;;;;;6.72;3.80;;;13.40;99.90;;;14.50;68.33;99456.91;6047780;23;20011;-82
2021/10/30 04:44:58;;;;;;;7.25;3.60;;;13.40;99.90;;;14.61;68.80;99449.19;6070960;23;20479;-81
2021/10/30 04:47:24;;;;;;;4.50;3.58;;;13.40;99.90;;;14.58;68.46;99458.44;6073501;23;20512;-78
2021/10/30 04:49:51;;;;;;;6.22;3.50;;;13.40;99.90;;;14.60;68.62;99444.81;6073131;23;20014;-79
2021/10/30 04:52:17;;;;;;;6.40;3.35;;;13.40;99.90;;;14.58;69.12;99452.84;6073092;23;20014;-80
2021/10/30 04:54:43;;;;;;;6.93;3.58;;;13.40;99.90;;;14.48;69.60;99431.22;6073241;23;20006;-80
2021/10/30 04:57:09;;;;;;;4.90;3.10;;;13.30;99.90;;;14.38;70.21;99446.19;6073584;23;20006;-79
2021/10/30 04:59:35;;;;;;;8.43;3.05;;;13.20;99.90;;;14.32;70.53;99438.59;6071103;23;20286;-79
2021/10/30 05:02:02;;;;;;;5.95;3.55;;;13.20;99.90;;;14.36;70.59;99442.97;6072759;23;20014;-80
2021/10/30 05:04:28;;;;;;;5.75;3.25;;;13.20;99.90;;;14.41;70.24;99439.75;6047236;23;20014;-79
2021/10/30 05:06:54;;;;;;;5.50;3.30;;;13.30;99.90;;;14.49;70.13;99432.84;6072717;23;20034;-79
2021/10/30 05:09:20;;;;;;;6.40;2.97;;;13.30;99.90;;;14.46;70.64;99427.25;6047085;23;20003;-78
2021/10/30 05:11:45;;;;;;;6.38;3.38;;;13.30;99.90;;;14.35;71.24;99426.56;6071078;23;20014;-79
2021/10/30 05:14:12;;;;;;;5.78;3.28;;;13.20;99.90;;;14.34;71.26;99414.50;6072269;23;20007;-79
2021/10/30 05:16:38;;;;;;;5.38;3.33;;;13.30;99.90;;;14.41;70.80;99414.47;6073230;23;20040;-81
2021/10/30 05:19:04;;;;;;;5.05;3.42;;;13.30;99.90;;;14.50;70.69;99413.97;6072606;23;20055;-80
2021/10/30 05:21:30;;;;;;;5.85;3.20;;;13.40;99.90;;;14.47;70.67;99407.19;6047145;23;20433;-80
2021/10/30 05:23:57;;;;;;;6.07;2.95;;;13.40;99.90;;;14.53;70.48;99402.72;6070403;23;20041;-78
2021/10/30 05:26:25;;;;;;;6.10;3.30;;;13.40;99.90;;;14.59;70.06;99403.06;6072863;23;20042;-76
2021/10/30 05:28:52;;;;;;;7.85;3.38;;;13.40;99.90;;;14.61;70.30;99395.81;6071440;23;20007;-79
2021/10/30 05:31:20;;;;;;;5.43;3.20;;;13.50;99.90;;;14.60;70.50;99399.84;6072700;23;20011;-81
2021/10/30 05:33:46;;;;;;;5.55;3.17;;;13.50;99.90;;;14.60;70.22;99399.03;6072296;23;20066;-81
2021/10/30 05:36:12;;;;;;;5.35;3.17;;;13.40;99.90;;;14.57;71.05;99399.88;6047766;23;20026;-79
2021/10/30 05:38:44;;;;;;;6.00;3.40;;;13.40;99.90;;;14.39;72.95;99399.22;6073704;23;20029;-80
2021/10/30 05:41:13;;;;;;;5.22;3.28;;;13.50;99.90;;;14.36;73.83;99397.22;6047591;23;20369;-82
2021/10/30 05:43:39;;;;;;;6.60;3.20;;;13.40;99.90;;;14.32;74.52;99388.03;6047850;23;20021;-83
2021/10/30 05:46:08;;;;;;;7.68;3.75;;;13.40;99.90;;;14.26;74.62;99394.06;6073241;23;20063;-80
2021/10/30 05:48:36;;;;;;;4.90;2.92;;;13.20;99.90;;;14.20;75.54;99384.50;6072560;23;20007;-80
2021/10/30 05:51:05;;;;;;;6.55;3.03;;;13.20;99.90;;;14.19;76.31;99374.47;6048167;23;20010;-80
2021/10/30 05:53:32;;;;;;;4.80;2.70;;;13.20;99.90;;;14.08;77.22;99382.19;6074151;23;20007;-82
2021/10/30 05:55:57;;;;;;;7.05;3.35;;;13.10;99.90;;;14.10;77.05;99376.13;6059109;23;20022;-81
2021/10/30 05:58:23;;;;;;;5.25;3.72;;;13.10;99.90;;;14.18;78.56;99369.28;6089231;23;20003;-81
2021/10/30 06:00:49;;;;;;;3.95;3.08;;;13.10;99.90;;;14.06;79.14;99375.38;6084665;23;20078;-78
2021/10/30 06:03:15;;;;;;;6.40;3.28;;;13.00;99.90;;;13.94;80.17;99367.44;6073684;23;20011;-79
2021/10/30 06:05:41;;;;;;;5.88;3.85;;;12.90;99.90;;;13.86;81.18;99361.09;6073189;23;20030;-79
2021/10/30 06:08:07;;;;;;;5.28;3.78;;;12.90;99.90;;;13.87;81.23;99356.28;6071123;23;20006;-80
2021/10/30 06:10:34;;;;;;;5.90;3.25;;;12.80;99.90;;;13.89;81.64;99351.84;6072222;23;20079;-76
2021/10/30 06:13:00;;;;;;;7.22;3.50;;;12.80;99.90;;;13.92;82.07;99337.00;6072020;23;20030;-78
2021/10/30 06:15:26;;;;;;;5.85;3.20;;;12.80;99.90;;;13.89;83.26;99337.81;6072119;23;20048;-80
2021/10/30 06:17:52;;;;;;;7.55;3.97;;;12.70;99.90;;;13.70;84.38;99327.94;6070425;23;20011;-78
2021/10/30 06:20:18;;;;;;;5.22;3.28;;;12.70;99.90;;;13.77;84.41;99323.47;6046930;23;20090;-79
2021/10/30 06:22:44;;;;;;;5.25;3.13;;;12.60;99.90;;;13.71;84.97;99331.50;6046765;23;20018;-79
2021/10/30 06:25:15;;;;;;;4.75;3.22;;;12.60;99.90;;;13.69;85.71;99351.56;6046550;23;20007;-81
2021/10/30 06:27:42;;;;;;;5.40;3.65;;;12.60;99.90;;;13.66;86.36;99343.97;6073105;23;20018;-80
2021/10/30 06:30:11;;;;;;;5.18;3.42;;;12.60;99.90;;;13.62;85.90;99339.59;6073499;23;20491;-80
2021/10/30 06:32:37;;;;;;;7.15;3.97;;;12.60;99.90;;;13.72;85.01;99347.13;6048227;23;20014;-81
2021/10/30 06:35:09;;;;;;;6.00;3.00;;;12.60;99.90;;;13.70;86.48;99341.16;6072711;23;20057;-78
2021/10/30 06:37:38;;;;;;;5.70;3.65;;;12.60;99.90;;;13.62;86.15;99342.38;6073252;23;20433;-79
2021/10/30 06:40:11;;;;;;;5.20;3.65;;;12.50;99.90;;;13.64;85.27;99346.41;6048604;23;20494;-78
2021/10/30 06:42:37;;;;;;;6.72;3.40;;;12.50;99.90;;;13.65;85.00;99347.97;6074232;23;20390;-80
2021/10/30 06:45:06;;;;;;;5.47;3.28;;;12.50;99.90;;;13.68;85.03;99343.56;6073822;23;20021;-79
2021/10/30 06:47:32;;;;;;;7.93;3.72;;;12.60;99.90;;;13.63;84.91;99349.59;6050147;23;20034;-80
2021/10/30 06:49:59;;;;;;;7.93;3.90;;;12.60;99.90;;;13.68;84.40;99343.56;6075378;23;20011;-80
2021/10/30 06:52:37;;;;;;;4.55;3.70;;;12.60;99.90;;;13.67;84.26;99351.19;6025630;23;20014;-79
2021/10/30 06:55:08;;;;;;;7.45;4.00;;;12.60;99.90;;;13.64;85.50;99343.59;6078521;23;20007;-82
2021/10/30 06:57:35;;;;;;;5.80;3.35;;;12.60;99.90;;;13.54;84.88;99349.25;6074165;23;20295;-79
2021/10/30 07:00:06;;;;;;;5.40;3.58;;;12.50;99.90;;;13.51;85.84;99362.09;6072384;23;20017;-82
2021/10/30 07:02:33;;;;;;;7.60;4.05;;;12.50;99.90;;;13.50;86.85;99346.47;6070152;23;20397;-82
2021/10/30 07:05:00;;;;;;;7.85;3.63;;;12.50;99.90;;;13.47;86.16;99350.09;6068927;23;20325;-82
2021/10/30 07:07:28;;;;;;;5.70;3.83;;;12.40;99.90;;;13.44;87.15;99350.13;6045041;23;20302;-80
2021/10/30 07:09:59;;;;;;;6.47;3.78;;;12.40;99.90;;;13.44;87.09;99353.72;6072460;23;20349;-80
2021/10/30 07:12:37;;;;;;;7.65;3.63;;;12.30;99.90;;;13.42;87.25;99360.94;6046101;23;20015;-82
2021/10/30 07:15:06;;;;;;;5.47;3.90;;;12.30;99.90;;;13.38;88.44;99355.34;6046540;23;20011;-82
2021/10/30 07:17:33;;;;;;;4.97;3.53;;;12.20;99.90;;;13.40;89.31;99358.53;6072070;23;20017;-81
2021/10/30 07:19:59;;;;;;;9.65;4.13;;;12.20;99.90;;;13.34;89.64;99348.16;6046534;23;20015;-80
2021/10/30 07:22:25;;;;;;;6.22;4.13;;;12.10;99.90;;;13.17;90.16;99352.63;6073754;23;20054;-78
2021/10/30 07:24:51;;;;;;;8.80;4.28;;;12.10;99.90;;;13.24;91.26;99349.81;6073030;23;20321;-79
2021/10/30 07:27:18;;;;;;;6.95;4.22;;;12.10;99.90;;;13.19;91.61;99355.84;6072630;23;20034;-78
2021/10/30 07:29:49;;;;;;;8.90;4.47;;;12.00;99.90;;;13.20;91.75;99354.63;6070276;23;20014;-79
2021/10/30 07:32:17;;;;;;;7.90;4.22;;;12.10;99.90;;;13.18;92.18;99357.03;6046981;23;20441;-80
2021/10/30 07:34:43;;;;;;;8.00;4.38;;;12.00;99.90;;;13.16;92.08;99359.47;6046098;23;20019;-78
2021/10/30 07:37:09;;;;;;;7.60;5.07;;;12.10;99.90;;;13.16;91.65;99365.06;6069720;23;20007;-80
2021/10/30 07:39:35;;;;;;;10.80;5.53;;;12.10;99.90;;;13.16;91.01;99365.06;6071954;23;20020;-80
2021/10/30 07:42:04;;;;;;;9.32;4.45;;;12.10;99.90;;;13.16;90.97;99365.84;6074263;23;20018;-80
2021/10/30 07:44:30;;;;;;;6.45;3.72;;;12.10;99.90;;;13.18;91.48;99363.44;6047037;23;20017;-79
2021/10/30 07:46:56;;;;;;;6.82;4.28;;;12.20;99.90;;;13.29;90.31;99352.19;6071916;23;20007;-80
2021/10/30 07:49:23;;;;;;;8.82;4.40;;;12.20;99.90;;;13.25;90.40;99348.59;6047636;23;20007;-80
2021/10/30 07:51:49;;;;;;;7.57;4.75;;;12.20;99.90;;;13.29;89.98;99345.78;6077758;23;20007;-79
2021/10/30 07:54:15;;;;;;;5.35;4.05;;;12.30;99.90;;;13.32;89.20;99347.78;6091384;23;20051;-80
2021/10/30 07:56:41;;;;;;;9.35;4.85;;;12.30;99.90;;;13.41;88.44;99340.53;6079803;23;20440;-82
2021/10/30 07:59:07;;;;;;;7.07;4.57;;;12.30;99.90;;;13.40;88.22;99343.72;6049130;23;20053;-83
2021/10/30 08:01:32;;;;;;;7.30;4.40;;;12.40;99.90;;;13.44;87.87;99342.50;6049113;23;20017;-81
2021/10/30 08:03:58;;;;;;;6.30;4.25;;;12.40;99.90;;;13.45;86.69;99338.47;6075406;23;20014;-80
2021/10/30 08:06:24;;;;;;;7.53;4.65;;;12.40;99.90;;;13.56;86.41;99344.03;6073795;23;20018;-81
2021/10/30 08:08:50;;;;;;;8.70;4.30;;;12.50;99.90;;;13.67;86.53;99339.97;6073697;23;20005;-78
2021/10/30 08:11:16;;;;;;;9.40;4.80;;;12.50;99.90;;;13.64;85.66;99340.00;6073528;23;20011;-76
2021/10/30 08:13:42;;;;;;;5.97;4.22;;;12.50;99.90;;;13.69;85.81;99336.75;6073166;23;20076;-79
2021/10/30 08:16:07;;;;;;;6.95;4.50;;;12.60;99.90;;;13.72;86.18;99336.72;6072194;23;20007;-80
2021/10/30 08:18:33;;;;;;;5.68;4.45;;;12.60;99.90;;;13.76;86.17;99319.06;6070650;23;20030;-79
2021/10/30 08:20:59;;;;;;;6.28;4.05;;;12.60;99.90;;;13.69;85.91;99325.50;6046430;23;20429;-81
2021/10/30 08:23:25;;;;;;;7.20;4.10;;;12.60;99.90;;;13.83;85.70;99327.44;6071811;23;20007;-81
2021/10/30 08:25:51;;;;;;;7.18;3.88;;;12.70;99.90;;;13.89;85.14;99317.38;6074593;23;20090;-78
2021/10/30 08:28:18;;;;;;;7.18;3.85;;;12.70;99.90;;;13.83;84.76;99319.00;6077242;23;20014;-76
2021/10/30 08:30:44;;;;;;;7.97;4.50;;;12.80;99.90;;;13.90;85.81;99327.38;6059549;23;20015;-78
2021/10/30 08:33:12;;;;;;;5.50;3.60;;;12.80;99.90;;;13.93;83.73;99312.53;6075229;23;20041;-80
2021/10/30 08:35:42;;;;;;;6.57;4.05;;;12.80;99.90;;;13.97;84.40;99313.28;6083858;23;20018;-82
2021/10/30 08:38:10;;;;;;;5.65;3.70;;;12.80;99.90;;;14.02;84.36;99322.06;6085955;23;20006;-82
2021/10/30 08:40:43;;;;;;;6.78;3.65;;;12.80;99.90;;;14.06;84.43;99317.22;6084522;23;20057;-80
2021/10/30 08:43:22;;;;;;;5.70;3.35;;;12.80;99.90;;;13.91;83.79;99320.53;6075848;23;20045;-79
2021/10/30 08:45:50;;;;;;;5.75;3.47;;;12.90;99.90;;;14.06;82.93;99310.81;6057223;23;20029;-80
2021/10/30 08:48:23;;;;;;;6.80;3.50;;;12.90;99.90;;;14.01;81.73;99308.44;6075815;23;20089;-80
2021/10/30 08:50:54;;;;;;;6.25;3.40;;;12.90;99.90;;;14.16;80.85;99309.91;6075256;23;20444;-80
2021/10/30 08:53:22;;;;;;;6.22;3.33;;;13.00;99.90;;;14.12;80.34;99320.41;6100804;23;20033;-80
2021/10/30 08:55:50;;;;;;;7.03;3.60;;;13.10;99.90;;;14.22;80.26;99314.66;6052472;23;20019;-80
2021/10/30 08:58:18;;;;;;;6.43;3.45;;;13.10;99.90;;;14.27;79.95;99313.44;6101269;23;20432;-81
2021/10/30 09:00:54;;;;;;;4.88;3.20;;;13.20;99.90;;;14.23;79.92;99309.84;6075156;23;20017;-79
2021/10/30 09:03:23;;;;;;;5.93;3.25;;;13.20;99.90;;;14.13;79.37;99314.34;6077206;23;20010;-81
2021/10/30 09:05:59;;;;;;;4.93;3.28;;;13.20;99.90;;;14.16;79.79;99312.72;6101649;23;20018;-81
2021/10/30 09:08:28;;;;;;;6.63;3.15;;;13.30;99.90;;;14.23;79.70;99301.44;6101346;23;20013;-81
2021/10/30 09:11:09;;;;;;;3.30;2.72;;;13.30;99.90;;;14.32;78.56;99292.53;6100356;23;20013;-79
2021/10/30 09:13:37;;;;;;;5.20;2.60;;;13.30;99.90;;;14.41;78.83;99295.69;6075855;23;20057;-80
2021/10/30 09:16:06;;;;;;;4.35;2.70;;;13.40;99.90;;;14.30;79.48;99300.56;6075351;23;20007;-81
2021/10/30 09:18:41;;;;;;;5.20;2.72;;;13.40;99.90;;;14.50;78.76;99293.19;6098886;23;20015;-80
2021/10/30 09:21:15;;;;;;;5.97;2.70;;;13.50;99.90;;;14.62;78.79;99292.66;6075509;23;20018;-82
2021/10/30 09:23:53;;;;;;;4.55;2.85;;;13.60;99.90;;;14.62;77.27;99292.66;6098842;23;20006;-81
2021/10/30 09:26:23;;;;;;;5.28;3.22;;;13.60;99.90;;;14.64;76.35;99295.84;6098997;23;20078;-80
2021/10/30 09:28:57;;;;;;;5.38;2.83;;;13.70;99.90;;;14.76;78.49;99282.06;6076538;23;20017;-81
2021/10/30 09:31:26;;;;;;;5.45;2.80;;;13.80;99.90;;;14.82;78.03;99284.38;6101676;23;20032;-83
2021/10/30 09:34:00;;;;;;;3.40;2.58;;;13.90;99.90;;;14.99;75.82;99274.97;6051907;23;20010;-80
2021/10/30 09:36:39;;;;;;;5.10;2.72;;;14.00;99.90;;;15.14;75.96;99273.53;6100288;23;20011;-79
2021/10/30 09:39:17;;;;;;;5.00;2.80;;;14.00;99.90;;;15.23;76.11;99271.00;6079358;23;20045;-81
2021/10/30 09:41:49;;;;;;;5.80;3.13;;;14.10;99.90;;;15.28;76.20;99270.56;6079461;23;20077;-79
2021/10/30 09:44:25;;;;;;;5.40;2.55;;;14.20;99.90;;;15.35;75.59;99264.81;6100905;23;20014;-82
2021/10/30 09:46:58;;;;;;;5.65;3.10;;;14.20;99.90;;;15.25;74.80;99265.78;6054064;23;20041;-84
2021/10/30 09:49:30;;;;;;;5.25;3.28;;;14.20;99.90;;;15.20;74.23;99261.41;6078085;23;20062;-82
2021/10/30 09:52:12;;;;;;;9.48;3.50;;;14.30;99.90;;;15.45;74.24;99263.06;6105132;23;20455;-81
2021/10/30 09:54:45;;;;;;;6.35;3.35;;;14.30;99.90;;;15.31;73.19;99266.91;6079044;23;20511;-81
2021/10/30 09:57:31;;;;;;;10.15;3.35;;;14.40;99.90;;;15.57;73.31;99254.09;6008320;23;20636;-80
2021/10/30 10:00:04;;;;;;;7.13;2.92;;;14.50;99.90;;;15.60;72.71;99254.03;6078685;23;20014;-79
2021/10/30 10:02:33;;;;;;;6.90;2.90;;;14.50;99.90;;;15.54;72.91;99263.38;6077679;23;20010;-81
2021/10/30 10:05:02;;;;;;;8.63;3.65;;;14.50;99.90;;;15.64;72.65;99257.56;6100100;23;20037;-79
2021/10/30 10:07:33;;;;;;;5.25;3.17;;;14.60;99.90;;;15.62;70.71;99264.84;6075631;23;20018;-80
2021/10/30 10:10:01;;;;;;;7.60;3.20;;;14.50;99.90;;;15.70;71.70;99261.50;6075607;23;20014;-81
2021/10/30 10:12:31;;;;;;;6.30;3.55;;;14.60;99.90;;;15.57;70.82;99262.53;6101700;23;20029;-80
2021/10/30 10:15:01;;;;;;;4.55;2.83;;;14.60;99.90;;;15.54;70.22;99271.81;6102335;23;20034;-80
2021/10/30 10:17:27;;;;;;;4.32;2.97;;;14.60;99.90;;;15.65;71.29;99256.34;6104540;23;20061;-83
2021/10/30 10:20:07;;;;;;;6.00;2.67;;;14.60;99.90;;;15.78;69.13;99257.34;5100758;27;20377;-81